sensor_id;sensor_type;location;lat;lon;timestamp;P1;durP1;ratioP1;P2;durP2;ratioP2
42110;SDS011;27766;52.174;5.456;2023-03-23T00:01:12;6.72;;;4.45;;
42110;SDS011;27766;52.174;5.456;2023-03-23T00:03:40;7.07;;;4.43;;
42110;SDS011;27766;52.174;5.456;2023-03-23T00:06:07;8.77;;;4.53;;
42110;SDS011;27766;52.174;5.456;2023-03-23T00:08:34;11.45;;;5.13;;
42110;SDS011;27766;52.174;5.456;2023-03-23T00:11:11;8.60;;;3.97;;
42110;SDS011;27766;52.174;5.456;2023-03-23T00:13:41;4.40;;;3.75;;
42110;SDS011;27766;52.174;5.456;2023-03-23T00:16:10;5.40;;;3.63;;
42110;SDS011;27766;52.174;5.456;2023-03-23T00:18:44;5.30;;;3.85;;
42110;SDS011;27766;52.174;5.456;2023-03-23T00:21:10;9.07;;;4.60;;
42110;SDS011;27766;52.174;5.456;2023-03-23T00:23:37;12.82;;;4.43;;
42110;SDS011;27766;52.174;5.456;2023-03-23T00:26:03;6.68;;;4.35;;
42110;SDS011;27766;52.174;5.456;2023-03-23T00:28:30;9.23;;;4.07;;
42110;SDS011;27766;52.174;5.456;2023-03-23T00:31:03;5.82;;;3.65;;
42110;SDS011;27766;52.174;5.456;2023-03-23T00:33:32;7.50;;;3.67;;
42110;SDS011;27766;52.174;5.456;2023-03-23T00:36:03;6.97;;;4.07;;
42110;SDS011;27766;52.174;5.456;2023-03-23T00:38:30;6.93;;;4.10;;
42110;SDS011;27766;52.174;5.456;2023-03-23T00:40:57;9.30;;;3.67;;
42110;SDS011;27766;52.174;5.456;2023-03-23T00:43:23;9.48;;;3.55;;
42110;SDS011;27766;52.174;5.456;2023-03-23T00:45:50;6.57;;;4.13;;
42110;SDS011;27766;52.174;5.456;2023-03-23T00:48:20;6.95;;;4.43;;
42110;SDS011;27766;52.174;5.456;2023-03-23T00:50:46;6.63;;;3.08;;
42110;SDS011;27766;52.174;5.456;2023-03-23T00:53:13;4.60;;;3.33;;
42110;SDS011;27766;52.174;5.456;2023-03-23T00:55:42;6.05;;;3.83;;
42110;SDS011;27766;52.174;5.456;2023-03-23T00:58:09;3.45;;;2.72;;
42110;SDS011;27766;52.174;5.456;2023-03-23T01:00:36;5.43;;;3.50;;
42110;SDS011;27766;52.174;5.456;2023-03-23T01:03:03;5.45;;;2.75;;
42110;SDS011;27766;52.174;5.456;2023-03-23T01:05:33;7.35;;;3.30;;
42110;SDS011;27766;52.174;5.456;2023-03-23T01:08:01;5.63;;;3.08;;
42110;SDS011;27766;52.174;5.456;2023-03-23T01:10:27;5.93;;;3.10;;
42110;SDS011;27766;52.174;5.456;2023-03-23T01:12:53;4.20;;;3.00;;
42110;SDS011;27766;52.174;5.456;2023-03-23T01:15:20;4.63;;;2.65;;
42110;SDS011;27766;52.174;5.456;2023-03-23T01:17:47;5.85;;;3.45;;
42110;SDS011;27766;52.174;5.456;2023-03-23T01:20:13;5.45;;;3.20;;
42110;SDS011;27766;52.174;5.456;2023-03-23T01:22:41;4.43;;;3.15;;
42110;SDS011;27766;52.174;5.456;2023-03-23T01:25:08;7.80;;;3.00;;
42110;SDS011;27766;52.174;5.456;2023-03-23T01:27:35;4.00;;;2.65;;
42110;SDS011;27766;52.174;5.456;2023-03-23T01:30:02;4.13;;;2.92;;
42110;SDS011;27766;52.174;5.456;2023-03-23T01:32:29;3.13;;;2.45;;
42110;SDS011;27766;52.174;5.456;2023-03-23T01:34:55;3.75;;;2.53;;
42110;SDS011;27766;52.174;5.456;2023-03-23T01:37:21;4.78;;;2.45;;
42110;SDS011;27766;52.174;5.456;2023-03-23T01:39:52;4.25;;;2.63;;
42110;SDS011;27766;52.174;5.456;2023-03-23T01:42:21;4.35;;;2.35;;
42110;SDS011;27766;52.174;5.456;2023-03-23T01:47:14;3.78;;;2.50;;
42110;SDS011;27766;52.174;5.456;2023-03-23T01:49:42;6.32;;;2.55;;
42110;SDS011;27766;52.174;5.456;2023-03-23T01:52:16;7.55;;;2.83;;
42110;SDS011;27766;52.174;5.456;2023-03-23T01:54:47;4.32;;;2.42;;
42110;SDS011;27766;52.174;5.456;2023-03-23T01:57:15;3.55;;;2.42;;
42110;SDS011;27766;52.174;5.456;2023-03-23T01:59:43;3.38;;;2.40;;
42110;SDS011;27766;52.174;5.456;2023-03-23T02:02:13;4.85;;;2.47;;
42110;SDS011;27766;52.174;5.456;2023-03-23T02:04:40;6.60;;;3.17;;
42110;SDS011;27766;52.174;5.456;2023-03-23T02:07:09;3.25;;;2.25;;
42110;SDS011;27766;52.174;5.456;2023-03-23T02:09:37;5.10;;;2.70;;
42110;SDS011;27766;52.174;5.456;2023-03-23T02:12:03;7.90;;;3.22;;
42110;SDS011;27766;52.174;5.456;2023-03-23T02:14:30;3.80;;;2.78;;
42110;SDS011;27766;52.174;5.456;2023-03-23T02:17:02;3.70;;;2.83;;
42110;SDS011;27766;52.174;5.456;2023-03-23T02:33:33;4.88;;;2.63;;
42110;SDS011;27766;52.174;5.456;2023-03-23T02:36:13;5.75;;;2.67;;
42110;SDS011;27766;52.174;5.456;2023-03-23T02:42:13;4.97;;;2.55;;
42110;SDS011;27766;52.174;5.456;2023-03-23T02:44:43;6.97;;;3.30;;
42110;SDS011;27766;52.174;5.456;2023-03-23T02:47:12;5.95;;;2.65;;
42110;SDS011;27766;52.174;5.456;2023-03-23T02:49:42;6.55;;;3.30;;
42110;SDS011;27766;52.174;5.456;2023-03-23T02:52:12;2.95;;;2.53;;
42110;SDS011;27766;52.174;5.456;2023-03-23T02:54:44;5.85;;;2.50;;
42110;SDS011;27766;52.174;5.456;2023-03-23T02:57:13;2.97;;;2.53;;
42110;SDS011;27766;52.174;5.456;2023-03-23T02:59:39;4.28;;;3.03;;
42110;SDS011;27766;52.174;5.456;2023-03-23T03:02:22;5.18;;;3.20;;
42110;SDS011;27766;52.174;5.456;2023-03-23T03:05:01;6.15;;;3.30;;
42110;SDS011;27766;52.174;5.456;2023-03-23T03:07:49;6.20;;;3.17;;
42110;SDS011;27766;52.174;5.456;2023-03-23T03:10:30;4.13;;;2.45;;
42110;SDS011;27766;52.174;5.456;2023-03-23T03:15:44;4.30;;;2.72;;
42110;SDS011;27766;52.174;5.456;2023-03-23T03:18:18;4.10;;;2.38;;
42110;SDS011;27766;52.174;5.456;2023-03-23T03:20:50;4.60;;;2.78;;
42110;SDS011;27766;52.174;5.456;2023-03-23T03:23:19;4.53;;;3.05;;
42110;SDS011;27766;52.174;5.456;2023-03-23T03:25:48;7.80;;;2.65;;
42110;SDS011;27766;52.174;5.456;2023-03-23T03:28:16;4.70;;;2.63;;
42110;SDS011;27766;52.174;5.456;2023-03-23T03:30:47;3.65;;;2.78;;
42110;SDS011;27766;52.174;5.456;2023-03-23T03:33:22;5.25;;;2.83;;
42110;SDS011;27766;52.174;5.456;2023-03-23T03:35:53;4.32;;;2.28;;
42110;SDS011;27766;52.174;5.456;2023-03-23T03:38:21;3.42;;;2.03;;
42110;SDS011;27766;52.174;5.456;2023-03-23T03:40:47;4.85;;;2.45;;
42110;SDS011;27766;52.174;5.456;2023-03-23T03:43:13;4.88;;;2.10;;
42110;SDS011;27766;52.174;5.456;2023-03-23T03:45:39;3.25;;;2.00;;
42110;SDS011;27766;52.174;5.456;2023-03-23T03:48:06;2.58;;;2.03;;
42110;SDS011;27766;52.174;5.456;2023-03-23T03:50:32;2.72;;;1.92;;
42110;SDS011;27766;52.174;5.456;2023-03-23T03:52:58;3.55;;;2.03;;
42110;SDS011;27766;52.174;5.456;2023-03-23T03:55:25;7.18;;;2.10;;
42110;SDS011;27766;52.174;5.456;2023-03-23T03:57:56;2.47;;;2.10;;
42110;SDS011;27766;52.174;5.456;2023-03-23T04:00:22;5.78;;;1.73;;
42110;SDS011;27766;52.174;5.456;2023-03-23T04:02:49;7.57;;;2.25;;
42110;SDS011;27766;52.174;5.456;2023-03-23T04:05:21;4.85;;;2.15;;
42110;SDS011;27766;52.174;5.456;2023-03-23T04:07:48;4.40;;;2.17;;
42110;SDS011;27766;52.174;5.456;2023-03-23T04:10:17;8.23;;;1.35;;
42110;SDS011;27766;52.174;5.456;2023-03-23T04:12:48;2.40;;;1.55;;
42110;SDS011;27766;52.174;5.456;2023-03-23T04:15:15;4.63;;;1.50;;
42110;SDS011;27766;52.174;5.456;2023-03-23T04:17:41;4.57;;;1.40;;
42110;SDS011;27766;52.174;5.456;2023-03-23T04:20:08;2.65;;;1.73;;
42110;SDS011;27766;52.174;5.456;2023-03-23T04:22:41;4.72;;;1.88;;
42110;SDS011;27766;52.174;5.456;2023-03-23T04:25:09;4.82;;;1.63;;
42110;SDS011;27766;52.174;5.456;2023-03-23T04:27:38;4.38;;;1.80;;
42110;SDS011;27766;52.174;5.456;2023-03-23T04:30:05;4.13;;;1.77;;
42110;SDS011;27766;52.174;5.456;2023-03-23T04:32:31;2.72;;;1.67;;
42110;SDS011;27766;52.174;5.456;2023-03-23T04:34:58;5.22;;;1.77;;
42110;SDS011;27766;52.174;5.456;2023-03-23T04:37:27;2.63;;;1.35;;
42110;SDS011;27766;52.174;5.456;2023-03-23T04:40:00;2.38;;;1.38;;
42110;SDS011;27766;52.174;5.456;2023-03-23T04:42:27;3.83;;;1.35;;
42110;SDS011;27766;52.174;5.456;2023-03-23T04:44:56;4.07;;;1.10;;
42110;SDS011;27766;52.174;5.456;2023-03-23T04:47:23;3.08;;;1.38;;
42110;SDS011;27766;52.174;5.456;2023-03-23T04:49:56;5.10;;;1.52;;
42110;SDS011;27766;52.174;5.456;2023-03-23T04:52:27;3.50;;;1.40;;
42110;SDS011;27766;52.174;5.456;2023-03-23T04:54:54;6.70;;;1.85;;
42110;SDS011;27766;52.174;5.456;2023-03-23T04:57:23;5.03;;;1.40;;
42110;SDS011;27766;52.174;5.456;2023-03-23T04:59:53;6.30;;;1.63;;
42110;SDS011;27766;52.174;5.456;2023-03-23T05:02:19;4.93;;;1.67;;
42110;SDS011;27766;52.174;5.456;2023-03-23T05:04:45;5.80;;;1.77;;
42110;SDS011;27766;52.174;5.456;2023-03-23T05:07:11;5.03;;;1.55;;
42110;SDS011;27766;52.174;5.456;2023-03-23T05:09:37;5.13;;;1.60;;
42110;SDS011;27766;52.174;5.456;2023-03-23T05:12:06;3.15;;;1.23;;
42110;SDS011;27766;52.174;5.456;2023-03-23T05:14:34;3.40;;;1.30;;
42110;SDS011;27766;52.174;5.456;2023-03-23T05:17:00;7.63;;;2.15;;
42110;SDS011;27766;52.174;5.456;2023-03-23T05:19:27;16.02;;;1.83;;
42110;SDS011;27766;52.174;5.456;2023-03-23T05:21:54;7.93;;;2.15;;
42110;SDS011;27766;52.174;5.456;2023-03-23T05:24:31;5.53;;;1.75;;
42110;SDS011;27766;52.174;5.456;2023-03-23T05:26:59;4.38;;;1.90;;
42110;SDS011;27766;52.174;5.456;2023-03-23T05:29:26;7.03;;;1.80;;
42110;SDS011;27766;52.174;5.456;2023-03-23T05:31:52;4.50;;;1.45;;
42110;SDS011;27766;52.174;5.456;2023-03-23T05:34:21;14.45;;;2.60;;
42110;SDS011;27766;52.174;5.456;2023-03-23T05:36:47;4.22;;;1.83;;
42110;SDS011;27766;52.174;5.456;2023-03-23T05:39:13;5.63;;;1.85;;
42110;SDS011;27766;52.174;5.456;2023-03-23T05:41:40;12.23;;;2.35;;
42110;SDS011;27766;52.174;5.456;2023-03-23T05:44:06;6.93;;;2.17;;
42110;SDS011;27766;52.174;5.456;2023-03-23T05:46:32;8.00;;;1.88;;
42110;SDS011;27766;52.174;5.456;2023-03-23T05:48:58;7.55;;;1.95;;
42110;SDS011;27766;52.174;5.456;2023-03-23T05:51:25;6.68;;;2.50;;
42110;SDS011;27766;52.174;5.456;2023-03-23T05:53:52;9.05;;;2.60;;
42110;SDS011;27766;52.174;5.456;2023-03-23T05:56:18;6.22;;;2.17;;
42110;SDS011;27766;52.174;5.456;2023-03-23T05:58:44;10.10;;;2.67;;
42110;SDS011;27766;52.174;5.456;2023-03-23T06:01:10;4.28;;;1.70;;
42110;SDS011;27766;52.174;5.456;2023-03-23T06:03:39;8.68;;;2.80;;
42110;SDS011;27766;52.174;5.456;2023-03-23T06:06:05;6.90;;;2.58;;
42110;SDS011;27766;52.174;5.456;2023-03-23T06:08:31;10.13;;;2.53;;
42110;SDS011;27766;52.174;5.456;2023-03-23T06:10:57;7.82;;;2.67;;
42110;SDS011;27766;52.174;5.456;2023-03-23T06:13:23;9.52;;;2.22;;
42110;SDS011;27766;52.174;5.456;2023-03-23T06:15:49;7.35;;;3.15;;
42110;SDS011;27766;52.174;5.456;2023-03-23T06:18:16;6.97;;;2.75;;
42110;SDS011;27766;52.174;5.456;2023-03-23T06:20:42;12.90;;;2.75;;
42110;SDS011;27766;52.174;5.456;2023-03-23T06:23:09;5.45;;;2.63;;
42110;SDS011;27766;52.174;5.456;2023-03-23T06:25:35;8.27;;;3.13;;
42110;SDS011;27766;52.174;5.456;2023-03-23T06:28:01;5.53;;;2.67;;
42110;SDS011;27766;52.174;5.456;2023-03-23T06:30:28;9.48;;;2.60;;
42110;SDS011;27766;52.174;5.456;2023-03-23T06:32:54;7.55;;;2.35;;
42110;SDS011;27766;52.174;5.456;2023-03-23T06:35:21;11.20;;;2.40;;
42110;SDS011;27766;52.174;5.456;2023-03-23T06:37:47;7.25;;;2.53;;
42110;SDS011;27766;52.174;5.456;2023-03-23T06:40:13;8.80;;;2.95;;
42110;SDS011;27766;52.174;5.456;2023-03-23T06:42:39;10.32;;;2.92;;
42110;SDS011;27766;52.174;5.456;2023-03-23T06:45:05;7.32;;;2.33;;
42110;SDS011;27766;52.174;5.456;2023-03-23T06:47:33;7.50;;;2.30;;
42110;SDS011;27766;52.174;5.456;2023-03-23T06:49:59;11.85;;;2.83;;
42110;SDS011;27766;52.174;5.456;2023-03-23T06:52:26;7.45;;;3.50;;
42110;SDS011;27766;52.174;5.456;2023-03-23T06:54:52;18.67;;;3.95;;
42110;SDS011;27766;52.174;5.456;2023-03-23T06:57:19;13.75;;;3.20;;
42110;SDS011;27766;52.174;5.456;2023-03-23T06:59:45;15.40;;;4.03;;
42110;SDS011;27766;52.174;5.456;2023-03-23T07:02:12;12.95;;;3.72;;
42110;SDS011;27766;52.174;5.456;2023-03-23T07:04:40;12.82;;;3.85;;
42110;SDS011;27766;52.174;5.456;2023-03-23T07:07:10;13.50;;;3.40;;
42110;SDS011;27766;52.174;5.456;2023-03-23T07:09:38;9.30;;;3.03;;
42110;SDS011;27766;52.174;5.456;2023-03-23T07:12:05;9.77;;;2.60;;
42110;SDS011;27766;52.174;5.456;2023-03-23T07:14:31;12.95;;;3.17;;
42110;SDS011;27766;52.174;5.456;2023-03-23T07:16:57;6.97;;;2.53;;
42110;SDS011;27766;52.174;5.456;2023-03-23T07:19:23;8.18;;;2.45;;
42110;SDS011;27766;52.174;5.456;2023-03-23T07:21:49;6.47;;;3.13;;
42110;SDS011;27766;52.174;5.456;2023-03-23T07:24:15;11.68;;;3.50;;
42110;SDS011;27766;52.174;5.456;2023-03-23T07:26:42;6.15;;;2.67;;
42110;SDS011;27766;52.174;5.456;2023-03-23T07:29:08;16.80;;;3.78;;
42110;SDS011;27766;52.174;5.456;2023-03-23T07:31:35;7.30;;;3.22;;
42110;SDS011;27766;52.174;5.456;2023-03-23T07:34:01;10.90;;;2.75;;
42110;SDS011;27766;52.174;5.456;2023-03-23T07:36:28;15.60;;;3.70;;
42110;SDS011;27766;52.174;5.456;2023-03-23T07:38:56;7.03;;;3.53;;
42110;SDS011;27766;52.174;5.456;2023-03-23T07:41:22;6.95;;;3.55;;
42110;SDS011;27766;52.174;5.456;2023-03-23T07:43:48;14.93;;;4.35;;
42110;SDS011;27766;52.174;5.456;2023-03-23T07:46:14;9.73;;;3.55;;
42110;SDS011;27766;52.174;5.456;2023-03-23T07:48:41;5.50;;;2.22;;
42110;SDS011;27766;52.174;5.456;2023-03-23T07:51:08;12.25;;;3.60;;
42110;SDS011;27766;52.174;5.456;2023-03-23T07:53:34;10.73;;;3.65;;
42110;SDS011;27766;52.174;5.456;2023-03-23T07:56:00;8.60;;;3.30;;
42110;SDS011;27766;52.174;5.456;2023-03-23T07:58:28;7.63;;;2.70;;
42110;SDS011;27766;52.174;5.456;2023-03-23T08:00:55;6.40;;;2.08;;
42110;SDS011;27766;52.174;5.456;2023-03-23T08:03:23;3.78;;;2.35;;
42110;SDS011;27766;52.174;5.456;2023-03-23T08:05:49;11.68;;;2.78;;
42110;SDS011;27766;52.174;5.456;2023-03-23T08:08:15;8.43;;;2.60;;
42110;SDS011;27766;52.174;5.456;2023-03-23T08:10:41;8.50;;;2.75;;
42110;SDS011;27766;52.174;5.456;2023-03-23T08:13:07;5.63;;;2.45;;
42110;SDS011;27766;52.174;5.456;2023-03-23T08:15:34;5.78;;;2.33;;
42110;SDS011;27766;52.174;5.456;2023-03-23T08:18:03;9.25;;;2.85;;
42110;SDS011;27766;52.174;5.456;2023-03-23T08:20:30;5.70;;;2.63;;
42110;SDS011;27766;52.174;5.456;2023-03-23T08:22:57;5.32;;;2.83;;
42110;SDS011;27766;52.174;5.456;2023-03-23T08:25:23;7.30;;;1.95;;
42110;SDS011;27766;52.174;5.456;2023-03-23T08:27:52;6.57;;;3.10;;
42110;SDS011;27766;52.174;5.456;2023-03-23T08:30:19;3.65;;;1.98;;
42110;SDS011;27766;52.174;5.456;2023-03-23T08:32:48;4.30;;;2.03;;
42110;SDS011;27766;52.174;5.456;2023-03-23T08:35:15;9.98;;;2.72;;
42110;SDS011;27766;52.174;5.456;2023-03-23T08:37:41;5.25;;;2.38;;
42110;SDS011;27766;52.174;5.456;2023-03-23T08:40:07;4.88;;;2.03;;
42110;SDS011;27766;52.174;5.456;2023-03-23T08:42:36;6.28;;;2.38;;
42110;SDS011;27766;52.174;5.456;2023-03-23T08:45:04;7.57;;;2.10;;
42110;SDS011;27766;52.174;5.456;2023-03-23T08:47:33;4.03;;;1.85;;
42110;SDS011;27766;52.174;5.456;2023-03-23T08:50:01;3.92;;;1.77;;
42110;SDS011;27766;52.174;5.456;2023-03-23T08:52:29;6.68;;;2.42;;
42110;SDS011;27766;52.174;5.456;2023-03-23T08:54:56;11.65;;;3.80;;
42110;SDS011;27766;52.174;5.456;2023-03-23T08:57:23;12.15;;;5.22;;
42110;SDS011;27766;52.174;5.456;2023-03-23T08:59:51;11.68;;;7.75;;
42110;SDS011;27766;52.174;5.456;2023-03-23T09:02:20;6.63;;;3.53;;
42110;SDS011;27766;52.174;5.456;2023-03-23T09:04:46;9.25;;;3.55;;
42110;SDS011;27766;52.174;5.456;2023-03-23T09:07:13;8.18;;;3.63;;
42110;SDS011;27766;52.174;5.456;2023-03-23T09:09:40;7.22;;;2.75;;
42110;SDS011;27766;52.174;5.456;2023-03-23T09:12:07;14.88;;;5.07;;
42110;SDS011;27766;52.174;5.456;2023-03-23T09:14:34;11.60;;;2.15;;
42110;SDS011;27766;52.174;5.456;2023-03-23T09:17:01;8.43;;;2.40;;
42110;SDS011;27766;52.174;5.456;2023-03-23T09:19:32;8.05;;;2.55;;
42110;SDS011;27766;52.174;5.456;2023-03-23T09:22:02;6.75;;;2.50;;
42110;SDS011;27766;52.174;5.456;2023-03-23T09:24:29;2.50;;;1.85;;
42110;SDS011;27766;52.174;5.456;2023-03-23T09:26:57;7.78;;;2.40;;
42110;SDS011;27766;52.174;5.456;2023-03-23T09:29:25;8.43;;;2.83;;
42110;SDS011;27766;52.174;5.456;2023-03-23T09:31:53;8.18;;;2.45;;
42110;SDS011;27766;52.174;5.456;2023-03-23T09:34:19;14.23;;;5.93;;
42110;SDS011;27766;52.174;5.456;2023-03-23T09:36:46;13.88;;;4.72;;
42110;SDS011;27766;52.174;5.456;2023-03-23T09:39:12;26.38;;;8.77;;
42110;SDS011;27766;52.174;5.456;2023-03-23T09:44:42;12.25;;;3.97;;
42110;SDS011;27766;52.174;5.456;2023-03-23T09:50:22;5.13;;;2.40;;
42110;SDS011;27766;52.174;5.456;2023-03-23T09:55:21;10.38;;;3.80;;
42110;SDS011;27766;52.174;5.456;2023-03-23T09:57:52;7.22;;;2.22;;
42110;SDS011;27766;52.174;5.456;2023-03-23T10:00:33;8.40;;;2.80;;
42110;SDS011;27766;52.174;5.456;2023-03-23T10:03:39;12.10;;;3.20;;
42110;SDS011;27766;52.174;5.456;2023-03-23T10:06:11;11.85;;;4.35;;
42110;SDS011;27766;52.174;5.456;2023-03-23T10:08:45;10.95;;;3.85;;
42110;SDS011;27766;52.174;5.456;2023-03-23T10:11:21;13.02;;;4.85;;
42110;SDS011;27766;52.174;5.456;2023-03-23T10:16:55;8.38;;;3.30;;
42110;SDS011;27766;52.174;5.456;2023-03-23T10:19:31;10.10;;;2.40;;
42110;SDS011;27766;52.174;5.456;2023-03-23T10:22:03;14.73;;;3.85;;
42110;SDS011;27766;52.174;5.456;2023-03-23T10:24:35;13.45;;;3.80;;
42110;SDS011;27766;52.174;5.456;2023-03-23T10:29:45;7.10;;;2.65;;
42110;SDS011;27766;52.174;5.456;2023-03-23T10:32:19;7.57;;;1.80;;
42110;SDS011;27766;52.174;5.456;2023-03-23T10:34:55;9.00;;;2.25;;
42110;SDS011;27766;52.174;5.456;2023-03-23T10:37:36;10.00;;;3.15;;
42110;SDS011;27766;52.174;5.456;2023-03-23T10:40:05;5.70;;;2.38;;
42110;SDS011;27766;52.174;5.456;2023-03-23T10:42:40;10.02;;;2.58;;
42110;SDS011;27766;52.174;5.456;2023-03-23T10:45:20;6.97;;;2.35;;
42110;SDS011;27766;52.174;5.456;2023-03-23T10:50:34;8.90;;;1.90;;
42110;SDS011;27766;52.174;5.456;2023-03-23T10:53:03;7.90;;;2.30;;
42110;SDS011;27766;52.174;5.456;2023-03-23T10:55:40;8.73;;;2.45;;
42110;SDS011;27766;52.174;5.456;2023-03-23T10:58:09;8.10;;;1.95;;
42110;SDS011;27766;52.174;5.456;2023-03-23T11:00:44;10.05;;;2.53;;
42110;SDS011;27766;52.174;5.456;2023-03-23T11:05:44;11.43;;;2.38;;
42110;SDS011;27766;52.174;5.456;2023-03-23T11:08:16;6.97;;;2.00;;
42110;SDS011;27766;52.174;5.456;2023-03-23T11:10:49;7.75;;;2.13;;
42110;SDS011;27766;52.174;5.456;2023-03-23T11:13:20;9.57;;;2.10;;
42110;SDS011;27766;52.174;5.456;2023-03-23T11:15:48;8.13;;;2.92;;
42110;SDS011;27766;52.174;5.456;2023-03-23T11:18:23;7.70;;;2.65;;
42110;SDS011;27766;52.174;5.456;2023-03-23T11:21:08;9.43;;;2.65;;
42110;SDS011;27766;52.174;5.456;2023-03-23T11:23:42;6.88;;;2.20;;
42110;SDS011;27766;52.174;5.456;2023-03-23T11:26:18;6.97;;;2.08;;
42110;SDS011;27766;52.174;5.456;2023-03-23T11:28:48;10.60;;;2.35;;
42110;SDS011;27766;52.174;5.456;2023-03-23T11:31:29;5.10;;;2.20;;
42110;SDS011;27766;52.174;5.456;2023-03-23T11:36:39;8.88;;;2.22;;
42110;SDS011;27766;52.174;5.456;2023-03-23T11:42:19;12.65;;;2.63;;
42110;SDS011;27766;52.174;5.456;2023-03-23T11:44:53;10.90;;;2.75;;
42110;SDS011;27766;52.174;5.456;2023-03-23T11:50:19;6.78;;;2.17;;
42110;SDS011;27766;52.174;5.456;2023-03-23T11:56:21;8.27;;;2.58;;
42110;SDS011;27766;52.174;5.456;2023-03-23T11:58:28;4.30;;;1.70;;
42110;SDS011;27766;52.174;5.456;2023-03-23T12:01:00;6.97;;;2.50;;
42110;SDS011;27766;52.174;5.456;2023-03-23T12:06:13;4.53;;;1.58;;
42110;SDS011;27766;52.174;5.456;2023-03-23T12:09:01;7.15;;;1.90;;
42110;SDS011;27766;52.174;5.456;2023-03-23T12:11:52;7.50;;;1.95;;
42110;SDS011;27766;52.174;5.456;2023-03-23T12:20:12;6.88;;;2.03;;
42110;SDS011;27766;52.174;5.456;2023-03-23T12:22:52;5.53;;;2.22;;
42110;SDS011;27766;52.174;5.456;2023-03-23T12:28:06;5.03;;;1.98;;
42110;SDS011;27766;52.174;5.456;2023-03-23T12:30:47;7.55;;;1.67;;
42110;SDS011;27766;52.174;5.456;2023-03-23T12:33:25;7.20;;;1.98;;
42110;SDS011;27766;52.174;5.456;2023-03-23T12:41:03;7.63;;;2.38;;
42110;SDS011;27766;52.174;5.456;2023-03-23T12:44:06;6.25;;;2.28;;
42110;SDS011;27766;52.174;5.456;2023-03-23T12:49:35;5.72;;;2.13;;
42110;SDS011;27766;52.174;5.456;2023-03-23T12:54:51;6.22;;;2.28;;
42110;SDS011;27766;52.174;5.456;2023-03-23T12:57:32;8.30;;;1.92;;
42110;SDS011;27766;52.174;5.456;2023-03-23T13:00:21;8.68;;;2.00;;
42110;SDS011;27766;52.174;5.456;2023-03-23T13:03:10;10.25;;;2.58;;
42110;SDS011;27766;52.174;5.456;2023-03-23T13:09:22;6.65;;;1.65;;
42110;SDS011;27766;52.174;5.456;2023-03-23T13:11:30;12.65;;;2.17;;
42110;SDS011;27766;52.174;5.456;2023-03-23T13:25:15;2.80;;;1.70;;
42110;SDS011;27766;52.174;5.456;2023-03-23T13:27:55;5.47;;;1.30;;
42110;SDS011;27766;52.174;5.456;2023-03-23T13:30:24;3.30;;;1.15;;
42110;SDS011;27766;52.174;5.456;2023-03-23T13:32:50;9.05;;;2.60;;
42110;SDS011;27766;52.174;5.456;2023-03-23T13:35:18;4.95;;;1.98;;
42110;SDS011;27766;52.174;5.456;2023-03-23T13:37:49;4.93;;;2.00;;
42110;SDS011;27766;52.174;5.456;2023-03-23T13:40:30;6.20;;;2.20;;
42110;SDS011;27766;52.174;5.456;2023-03-23T13:42:58;5.75;;;1.83;;
42110;SDS011;27766;52.174;5.456;2023-03-23T13:48:03;8.95;;;2.17;;
42110;SDS011;27766;52.174;5.456;2023-03-23T13:50:42;4.38;;;1.42;;
42110;SDS011;27766;52.174;5.456;2023-03-23T13:53:31;7.85;;;1.20;;
42110;SDS011;27766;52.174;5.456;2023-03-23T13:56:17;8.98;;;2.00;;
42110;SDS011;27766;52.174;5.456;2023-03-23T14:07:56;4.45;;;1.52;;
42110;SDS011;27766;52.174;5.456;2023-03-23T14:10:34;6.45;;;1.65;;
42110;SDS011;27766;52.174;5.456;2023-03-23T14:13:20;4.85;;;1.55;;
42110;SDS011;27766;52.174;5.456;2023-03-23T14:19:12;4.60;;;1.85;;
42110;SDS011;27766;52.174;5.456;2023-03-23T14:23:52;8.07;;;1.60;;
42110;SDS011;27766;52.174;5.456;2023-03-23T14:26:20;8.93;;;2.08;;
42110;SDS011;27766;52.174;5.456;2023-03-23T14:28:51;4.72;;;1.60;;
42110;SDS011;27766;52.174;5.456;2023-03-23T14:31:20;6.88;;;1.73;;
42110;SDS011;27766;52.174;5.456;2023-03-23T14:33:48;5.38;;;1.88;;
42110;SDS011;27766;52.174;5.456;2023-03-23T14:36:22;3.55;;;1.40;;
42110;SDS011;27766;52.174;5.456;2023-03-23T14:39:35;7.45;;;1.67;;
42110;SDS011;27766;52.174;5.456;2023-03-23T14:41:41;6.43;;;2.45;;
42110;SDS011;27766;52.174;5.456;2023-03-23T14:44:12;3.35;;;1.77;;
42110;SDS011;27766;52.174;5.456;2023-03-23T14:46:42;2.70;;;1.63;;
42110;SDS011;27766;52.174;5.456;2023-03-23T14:49:17;5.35;;;1.90;;
42110;SDS011;27766;52.174;5.456;2023-03-23T14:51:51;7.05;;;1.67;;
42110;SDS011;27766;52.174;5.456;2023-03-23T14:54:27;5.30;;;2.28;;
42110;SDS011;27766;52.174;5.456;2023-03-23T14:56:55;6.30;;;2.08;;
42110;SDS011;27766;52.174;5.456;2023-03-23T14:59:21;5.18;;;1.67;;
42110;SDS011;27766;52.174;5.456;2023-03-23T15:01:48;11.68;;;3.20;;
42110;SDS011;27766;52.174;5.456;2023-03-23T15:04:18;6.18;;;2.28;;
42110;SDS011;27766;52.174;5.456;2023-03-23T15:06:52;5.10;;;1.75;;
42110;SDS011;27766;52.174;5.456;2023-03-23T15:09:25;4.63;;;1.75;;
42110;SDS011;27766;52.174;5.456;2023-03-23T15:11:55;4.15;;;1.75;;
42110;SDS011;27766;52.174;5.456;2023-03-23T15:14:36;6.13;;;2.03;;
42110;SDS011;27766;52.174;5.456;2023-03-23T15:17:21;5.32;;;1.80;;
42110;SDS011;27766;52.174;5.456;2023-03-23T15:19:50;5.65;;;1.75;;
42110;SDS011;27766;52.174;5.456;2023-03-23T15:24:51;6.63;;;2.53;;
42110;SDS011;27766;52.174;5.456;2023-03-23T15:27:29;3.10;;;1.70;;
42110;SDS011;27766;52.174;5.456;2023-03-23T15:29:59;6.88;;;2.03;;
42110;SDS011;27766;52.174;5.456;2023-03-23T15:32:39;5.60;;;1.52;;
42110;SDS011;27766;52.174;5.456;2023-03-23T15:35:12;8.38;;;1.70;;
42110;SDS011;27766;52.174;5.456;2023-03-23T15:37:44;3.75;;;1.20;;
42110;SDS011;27766;52.174;5.456;2023-03-23T15:40:15;3.13;;;1.55;;
42110;SDS011;27766;52.174;5.456;2023-03-23T15:42:47;8.25;;;2.15;;
42110;SDS011;27766;52.174;5.456;2023-03-23T15:50:15;6.68;;;2.63;;
42110;SDS011;27766;52.174;5.456;2023-03-23T15:52:57;6.72;;;2.25;;
42110;SDS011;27766;52.174;5.456;2023-03-23T15:57:54;6.57;;;3.00;;
42110;SDS011;27766;52.174;5.456;2023-03-23T16:00:23;3.42;;;2.15;;
42110;SDS011;27766;52.174;5.456;2023-03-23T16:02:59;5.75;;;2.35;;
42110;SDS011;27766;52.174;5.456;2023-03-23T16:05:30;11.63;;;3.45;;
42110;SDS011;27766;52.174;5.456;2023-03-23T16:07:58;10.05;;;2.80;;
42110;SDS011;27766;52.174;5.456;2023-03-23T16:10:27;7.20;;;2.00;;
42110;SDS011;27766;52.174;5.456;2023-03-23T16:12:54;6.78;;;1.60;;
42110;SDS011;27766;52.174;5.456;2023-03-23T16:15:21;8.05;;;2.42;;
42110;SDS011;27766;52.174;5.456;2023-03-23T16:17:49;4.63;;;1.98;;
42110;SDS011;27766;52.174;5.456;2023-03-23T16:20:19;7.90;;;2.05;;
42110;SDS011;27766;52.174;5.456;2023-03-23T16:22:49;6.47;;;2.75;;
42110;SDS011;27766;52.174;5.456;2023-03-23T16:25:17;11.60;;;2.70;;
42110;SDS011;27766;52.174;5.456;2023-03-23T16:27:44;7.10;;;2.28;;
42110;SDS011;27766;52.174;5.456;2023-03-23T16:30:20;8.15;;;2.88;;
42110;SDS011;27766;52.174;5.456;2023-03-23T16:32:50;6.85;;;1.73;;
42110;SDS011;27766;52.174;5.456;2023-03-23T16:35:19;11.63;;;2.67;;
42110;SDS011;27766;52.174;5.456;2023-03-23T16:37:48;15.82;;;5.13;;
42110;SDS011;27766;52.174;5.456;2023-03-23T16:40:33;11.68;;;6.45;;
42110;SDS011;27766;52.174;5.456;2023-03-23T16:43:00;12.50;;;5.30;;
42110;SDS011;27766;52.174;5.456;2023-03-23T16:45:39;10.93;;;3.25;;
42110;SDS011;27766;52.174;5.456;2023-03-23T16:48:10;10.15;;;4.18;;
42110;SDS011;27766;52.174;5.456;2023-03-23T16:50:39;7.47;;;5.05;;
42110;SDS011;27766;52.174;5.456;2023-03-23T16:53:06;10.80;;;4.22;;
42110;SDS011;27766;52.174;5.456;2023-03-23T16:55:34;7.05;;;4.00;;
42110;SDS011;27766;52.174;5.456;2023-03-23T16:58:02;7.03;;;2.97;;
42110;SDS011;27766;52.174;5.456;2023-03-23T17:00:44;14.95;;;5.18;;